createdAt,value
2023-04-12T00:00:34.603Z,99034.78
2023-04-12T00:01:37.316Z,99032.97
2023-04-12T00:02:42.392Z,99033.95
2023-04-12T00:03:47.393Z,99024.20
2023-04-12T00:04:52.089Z,99026.04
2023-04-12T00:05:55.368Z,99029.56
2023-04-12T00:07:00.242Z,99009.17
2023-04-12T00:08:04.498Z,99009.17
2023-04-12T00:09:09.228Z,99025.17
2023-04-12T00:10:12.512Z,99023.50
2023-04-12T00:11:15.244Z,99027.99
2023-04-12T00:12:18.683Z,99019.95
2023-04-12T00:13:21.943Z,99021.79
2023-04-12T00:14:26.015Z,99018.27
2023-04-12T00:15:29.321Z,99009.36
2023-04-12T00:16:32.057Z,99020.95
2023-04-12T00:17:35.656Z,99006.67
2023-04-12T00:18:38.664Z,99009.36
2023-04-12T00:19:42.670Z,99019.11
2023-04-12T00:20:47.050Z,99009.36
2023-04-12T00:21:50.179Z,99006.67
2023-04-12T00:22:53.388Z,99014.72
2023-04-12T00:23:56.293Z,99001.31
2023-04-12T00:24:59.212Z,99000.61
2023-04-12T00:26:04.417Z,99006.81
2023-04-12T00:27:08.881Z,99004.13
2023-04-12T00:28:12.576Z,99003.29
2023-04-12T00:30:28.819Z,98996.11
2023-04-12T00:31:31.568Z,98995.24
2023-04-12T00:32:37.114Z,98992.70
2023-04-12T00:33:41.091Z,98992.70
2023-04-12T00:34:43.879Z,98991.83
2023-04-12T00:35:47.611Z,98988.31
2023-04-12T00:36:51.834Z,98987.47
2023-04-12T00:37:54.654Z,98991.83
2023-04-12T00:40:12.916Z,98993.57
2023-04-12T00:41:16.201Z,98991.83
2023-04-12T00:42:18.713Z,98987.47
2023-04-12T00:43:24.502Z,98981.24
2023-04-12T00:45:39.141Z,98982.00
2023-04-12T00:46:42.916Z,98984.80
2023-04-12T00:47:47.213Z,98978.56
2023-04-12T00:50:03.223Z,98988.34
2023-04-12T00:51:08.994Z,98986.61
2023-04-12T00:52:14.221Z,98984.80
2023-04-12T00:53:17.131Z,98988.31
2023-04-12T00:54:21.735Z,98987.47
2023-04-12T00:55:25.034Z,98985.63
2023-04-12T00:56:28.583Z,98985.63
2023-04-12T00:57:38.012Z,98986.47
2023-04-12T00:58:41.096Z,98988.31
2023-04-12T00:59:44.275Z,98987.47
2023-04-12T01:00:52.243Z,98983.92
2023-04-12T01:01:56.387Z,98982.22
2023-04-12T01:03:02.648Z,98982.11
2023-04-12T01:04:06.004Z,98987.47
2023-04-12T01:05:10.990Z,98983.92
2023-04-12T01:06:21.769Z,98984.80
2023-04-12T01:09:11.784Z,98979.46
2023-04-12T01:10:28.072Z,98980.41
2023-04-12T01:11:37.276Z,98976.99
2023-04-12T01:13:07.518Z,98982.36
2023-04-12T01:14:19.713Z,98974.31
2023-04-12T01:15:23.827Z,98973.48
2023-04-12T01:16:39.213Z,98971.77
2023-04-12T01:18:03.971Z,98969.95
2023-04-12T01:19:18.094Z,98975.43
2023-04-12T01:20:23.719Z,98964.84
2023-04-12T01:21:47.112Z,98966.69
2023-04-12T01:23:22.525Z,98964.00
2023-04-12T01:26:17.517Z,98955.29
2023-04-12T01:27:47.042Z,98966.83
2023-04-12T01:28:52.778Z,98956.23
2023-04-12T01:29:56.626Z,98956.37
2023-04-12T01:32:14.980Z,98950.17
2023-04-12T01:33:18.318Z,98951.98
2023-04-12T01:34:21.805Z,98951.98
2023-04-12T01:36:40.435Z,98949.34
2023-04-12T01:37:43.727Z,98945.66
2023-04-12T01:38:46.541Z,98941.27
2023-04-12T01:39:49.439Z,98943.80
2023-04-12T01:40:52.484Z,98938.44
2023-04-12T01:41:55.272Z,98933.91
2023-04-12T01:43:06.963Z,98942.83
2023-04-12T01:44:15.055Z,98935.63
2023-04-12T01:45:18.769Z,98941.82
2023-04-12T01:46:36.850Z,98937.33
2023-04-12T01:47:40.516Z,98934.64
2023-04-12T01:48:47.110Z,98930.12
2023-04-12T01:51:15.543Z,98932.69
2023-04-12T01:52:21.069Z,98926.45
2023-04-12T01:53:45.397Z,98928.30
2023-04-12T01:54:50.996Z,98925.63
2023-04-12T01:55:59.768Z,98920.27
2023-04-12T01:57:03.584Z,98923.64
2023-04-12T01:58:06.883Z,98919.25
2023-04-12T01:59:12.118Z,98919.25
2023-04-12T02:00:16.011Z,98913.05
2023-04-12T02:01:20.323Z,98917.58
2023-04-12T02:03:37.927Z,98921.95
2023-04-12T02:04:41.592Z,98914.89
2023-04-12T02:05:44.362Z,98926.45
2023-04-12T02:06:47.177Z,98918.41
2023-04-12T02:07:50.066Z,98911.20
2023-04-12T02:09:03.604Z,98911.20
2023-04-12T02:10:07.554Z,98911.20
2023-04-12T02:11:11.164Z,98906.71
2023-04-12T02:12:14.903Z,98914.61
2023-04-12T02:13:18.416Z,98910.23
2023-04-12T02:14:21.733Z,98910.23
2023-04-12T02:15:26.052Z,98905.84
2023-04-12T02:16:29.668Z,98906.71
2023-04-12T02:17:32.875Z,98905.84
2023-04-12T02:18:36.596Z,98904.86
2023-04-12T02:19:39.971Z,98903.89
2023-04-12T02:20:43.384Z,98901.34
2023-04-12T02:21:46.331Z,98902.19
2023-04-12T02:22:52.958Z,98894.14
2023-04-12T02:23:56.596Z,98898.66
2023-04-12T02:25:01.731Z,98897.80
2023-04-12T02:26:05.931Z,98895.11
2023-04-12T02:27:08.732Z,98897.66
2023-04-12T02:28:13.953Z,98895.11
2023-04-12T02:29:17.418Z,98891.45
2023-04-12T02:30:22.871Z,98894.97
2023-04-12T02:31:27.730Z,98892.29
2023-04-12T02:32:32.243Z,98889.61
2023-04-12T02:33:36.619Z,98889.61
2023-04-12T02:34:41.919Z,98888.77
2023-04-12T02:35:47.117Z,98891.45
2023-04-12T02:36:51.867Z,98885.25
2023-04-12T02:37:55.156Z,98881.70
2023-04-12T02:39:00.496Z,98886.09
2023-04-12T02:40:08.340Z,98884.25
2023-04-12T02:41:19.261Z,98886.92
2023-04-12T02:42:23.293Z,98886.92
2023-04-12T02:43:27.424Z,98885.11
2023-04-12T02:44:33.222Z,98893.16
2023-04-12T02:45:49.468Z,98886.92
2023-04-12T02:46:52.919Z,98885.11
2023-04-12T02:47:56.808Z,98887.80
2023-04-12T02:49:01.448Z,98887.80
2023-04-12T02:50:10.851Z,98882.43
2023-04-12T02:51:15.732Z,98887.80
2023-04-12T02:52:19.827Z,98884.25
2023-04-12T02:53:43.730Z,98874.39
2023-04-12T02:54:52.036Z,98877.07
2023-04-12T02:55:57.604Z,98872.69
2023-04-12T02:57:01.597Z,98878.05
2023-04-12T02:58:12.372Z,98875.36
2023-04-12T02:59:16.975Z,98870.00
2023-04-12T03:00:31.006Z,98867.31
2023-04-12T03:01:36.119Z,98863.94
2023-04-12T03:02:58.736Z,98868.30
2023-04-12T03:04:03.591Z,98867.46
2023-04-12T03:05:09.151Z,98866.63
2023-04-12T03:06:16.641Z,98871.98
2023-04-12T03:07:21.479Z,98871.98
2023-04-12T03:08:26.036Z,98866.63
2023-04-12T03:09:33.081Z,98868.44
2023-04-12T03:10:36.205Z,98871.12
2023-04-12T03:11:40.257Z,98866.63
2023-04-12T03:12:43.855Z,98867.46
2023-04-12T03:13:52.748Z,98869.30
2023-04-12T03:14:56.142Z,98864.78
2023-04-12T03:16:00.669Z,98862.09
2023-04-12T03:17:08.720Z,98860.25
2023-04-12T03:18:12.210Z,98855.75
2023-04-12T03:19:20.878Z,98861.95
2023-04-12T03:20:27.396Z,98858.44
2023-04-12T03:21:34.953Z,98858.44
2023-04-12T03:22:38.050Z,98854.89
2023-04-12T03:23:43.081Z,98857.57
2023-04-12T03:24:49.023Z,98853.91
2023-04-12T03:25:52.409Z,98854.05
2023-04-12T03:27:10.134Z,98857.57
2023-04-12T03:28:14.067Z,98854.89
2023-04-12T03:29:24.925Z,98851.23
2023-04-12T03:30:28.978Z,98851.23
2023-04-12T03:31:31.960Z,98854.75
2023-04-12T03:32:37.353Z,98841.34
2023-04-12T03:33:41.175Z,98845.86
2023-04-12T03:34:45.941Z,98847.71
2023-04-12T03:35:48.980Z,98843.19
2023-04-12T03:38:04.116Z,98841.35
2023-04-12T03:39:07.437Z,98844.89
2023-04-12T03:40:12.421Z,98844.02
2023-04-12T03:41:17.993Z,98843.19
2023-04-12T03:42:32.247Z,98832.45
2023-04-12T03:43:27.112Z,98831.62
2023-04-12T03:44:32.099Z,98835.97
2023-04-12T03:45:36.455Z,98834.30
2023-04-12T03:46:40.399Z,98840.36
2023-04-12T03:47:46.021Z,98832.45
2023-04-12T03:48:51.565Z,98838.66
2023-04-12T03:50:10.394Z,98840.50
2023-04-12T03:51:03.217Z,98840.50
2023-04-12T03:52:07.125Z,98835.14
2023-04-12T03:53:11.260Z,98835.14
2023-04-12T03:54:14.768Z,98837.81
2023-04-12T03:55:23.314Z,98845.86
2023-04-12T03:56:27.550Z,98841.34
2023-04-12T03:57:30.727Z,98837.81
2023-04-12T03:58:33.541Z,98829.77
2023-04-12T03:59:36.565Z,98834.30
2023-04-12T04:00:41.316Z,98841.34
2023-04-12T04:01:46.456Z,98835.14
2023-04-12T04:02:50.896Z,98832.45
2023-04-12T04:03:54.552Z,98835.14
2023-04-12T04:05:01.933Z,98836.98
2023-04-12T04:06:06.524Z,98831.62
2023-04-12T04:08:22.819Z,98839.53
2023-04-12T04:09:29.662Z,98829.92
2023-04-12T04:10:33.736Z,98832.59
2023-04-12T04:11:38.326Z,98825.81
2023-04-12T04:12:42.220Z,98843.33
2023-04-12T04:13:46.696Z,98839.81
2023-04-12T04:14:52.460Z,98835.28
2023-04-12T04:16:03.999Z,98826.25
2023-04-12T04:17:07.932Z,98832.45
2023-04-12T04:18:11.510Z,98830.61
2023-04-12T04:19:14.991Z,98830.61
2023-04-12T04:20:19.511Z,98835.14
2023-04-12T04:21:26.091Z,98827.93
2023-04-12T04:22:32.029Z,98824.41
2023-04-12T04:23:42.360Z,98828.94
2023-04-12T04:24:45.270Z,98826.11
2023-04-12T04:25:49.220Z,98830.61
2023-04-12T04:26:54.093Z,98829.77
2023-04-12T04:27:59.391Z,98822.70
2023-04-12T04:29:04.572Z,98823.58
2023-04-12T04:30:11.802Z,98830.75
2023-04-12T04:31:17.834Z,98825.39
2023-04-12T04:32:23.346Z,98829.77
2023-04-12T04:33:27.297Z,98826.25
2023-04-12T04:34:31.730Z,98822.70
2023-04-12T04:35:40.151Z,98831.62
2023-04-12T04:36:48.279Z,98829.77
2023-04-12T04:37:54.352Z,98781.33
2023-04-12T04:38:57.749Z,98824.41
2023-04-12T04:40:08.853Z,98830.75
2023-04-12T04:41:13.266Z,98824.55
2023-04-12T04:42:21.034Z,98821.03
2023-04-12T04:43:34.494Z,98825.39
2023-04-12T04:45:53.754Z,98821.73
2023-04-12T04:47:00.825Z,98818.21
2023-04-12T04:48:06.295Z,98824.41
2023-04-12T04:49:09.117Z,98827.09
2023-04-12T04:51:25.878Z,98823.44
2023-04-12T04:52:30.084Z,98828.07
2023-04-12T04:53:35.681Z,98830.75
2023-04-12T04:54:39.497Z,98827.09
2023-04-12T04:55:42.775Z,98827.23
2023-04-12T04:56:46.368Z,98821.88
2023-04-12T04:57:51.692Z,98823.72
2023-04-12T04:58:57.178Z,98821.03
2023-04-12T05:00:01.701Z,98822.02
2023-04-12T05:01:05.711Z,98825.53
2023-04-12T05:02:10.503Z,98817.48
2023-04-12T05:03:13.992Z,98821.15
2023-04-12T05:04:18.456Z,98819.33
2023-04-12T05:05:23.834Z,98819.33
2023-04-12T05:06:28.646Z,98815.78
2023-04-12T05:07:32.921Z,98816.66
2023-04-12T05:08:35.930Z,98819.47
2023-04-12T05:09:39.052Z,98821.29
2023-04-12T05:10:44.870Z,98820.31
2023-04-12T05:11:48.845Z,98823.97
2023-04-12T05:12:51.760Z,98824.98
2023-04-12T05:13:54.689Z,98828.50
2023-04-12T05:15:08.813Z,98829.34
2023-04-12T05:16:08.610Z,98820.45
2023-04-12T05:17:12.001Z,98819.63
2023-04-12T05:19:26.699Z,98823.98
2023-04-12T05:20:32.208Z,98819.63
2023-04-12T05:21:36.633Z,98821.44
2023-04-12T05:22:39.825Z,98826.80
2023-04-12T05:23:45.373Z,98828.50
2023-04-12T05:24:48.669Z,98824.98
2023-04-12T05:25:52.588Z,98815.09
2023-04-12T05:26:56.101Z,98816.94
2023-04-12T05:27:59.709Z,98820.45
2023-04-12T05:30:15.739Z,98809.73
2023-04-12T05:31:22.603Z,98811.58
2023-04-12T05:32:25.849Z,98819.63
2023-04-12T05:33:29.858Z,98811.58
2023-04-12T05:34:33.609Z,98817.77
2023-04-12T05:35:38.046Z,98812.41
2023-04-12T05:36:41.042Z,98805.20
2023-04-12T05:37:44.232Z,98804.36
2023-04-12T05:38:49.232Z,98813.25
2023-04-12T05:39:54.728Z,98805.34
2023-04-12T05:40:58.586Z,98813.39
2023-04-12T05:42:01.918Z,98809.73
2023-04-12T05:43:04.750Z,98799.98
2023-04-12T05:44:08.735Z,98792.80
2023-04-12T05:45:12.662Z,98807.19
2023-04-12T05:46:16.499Z,98801.83
2023-04-12T05:47:21.206Z,98803.53
2023-04-12T05:48:25.011Z,98800.98
2023-04-12T05:50:53.263Z,98801.84
2023-04-12T05:51:58.413Z,98800.12
2023-04-12T05:53:01.534Z,98804.65
2023-04-12T05:54:07.474Z,98798.42
2023-04-12T05:55:11.205Z,98800.27
2023-04-12T05:56:17.365Z,98801.97
2023-04-12T05:57:21.164Z,98801.10
2023-04-12T05:58:26.776Z,98798.42
2023-04-12T05:59:31.733Z,98802.80
2023-04-12T06:00:42.138Z,98794.91
2023-04-12T06:01:45.004Z,98793.06
2023-04-12T06:02:48.066Z,98789.54
2023-04-12T06:03:51.987Z,98798.42
2023-04-12T06:04:55.261Z,98794.06
2023-04-12T06:05:59.623Z,98792.22
2023-04-12T06:07:04.047Z,98786.02
2023-04-12T06:08:08.185Z,98789.54
2023-04-12T06:09:15.399Z,98792.22
2023-04-12T06:10:19.417Z,98787.70
2023-04-12T06:11:24.443Z,98785.02
2023-04-12T06:12:29.213Z,98799.29
2023-04-12T06:13:32.395Z,98790.38
2023-04-12T06:14:35.833Z,98788.70
2023-04-12T06:15:39.315Z,98788.70
2023-04-12T06:16:42.878Z,98784.17
2023-04-12T06:17:45.902Z,98780.66
2023-04-12T06:18:50.173Z,98781.50
2023-04-12T06:19:55.147Z,98792.22
2023-04-12T06:20:58.816Z,98786.86
2023-04-12T06:22:03.774Z,98783.34
2023-04-12T06:23:07.291Z,98778.96
2023-04-12T06:24:10.608Z,98783.34
2023-04-12T06:25:13.533Z,98783.34
2023-04-12T06:26:18.566Z,98777.11
2023-04-12T06:27:23.101Z,98779.80
2023-04-12T06:28:27.050Z,98777.98
2023-04-12T06:29:30.354Z,98774.44
2023-04-12T06:30:34.305Z,98777.11
2023-04-12T06:31:37.778Z,98775.30
2023-04-12T06:32:41.654Z,98774.44
2023-04-12T06:33:44.486Z,98773.59
2023-04-12T06:34:49.591Z,98771.75
2023-04-12T06:35:53.034Z,98773.59
2023-04-12T06:36:57.080Z,98772.77
2023-04-12T06:38:00.049Z,98772.77
2023-04-12T06:39:03.504Z,98768.23
2023-04-12T06:40:08.239Z,98765.70
2023-04-12T06:41:11.973Z,98769.21
2023-04-12T06:42:18.453Z,98772.77
2023-04-12T06:43:23.568Z,98770.91
2023-04-12T06:44:27.845Z,98767.26
2023-04-12T06:45:30.861Z,98769.07
2023-04-12T06:46:33.623Z,98777.98
2023-04-12T06:47:36.342Z,98771.75
2023-04-12T06:48:39.006Z,98767.26
2023-04-12T06:49:42.457Z,98762.88
2023-04-12T06:50:45.559Z,98766.39
2023-04-12T06:51:48.724Z,98761.89
2023-04-12T06:52:53.883Z,98761.89
2023-04-12T06:53:57.197Z,98769.07
2023-04-12T06:55:00.280Z,98766.39
2023-04-12T06:56:04.360Z,98771.75
2023-04-12T06:57:13.150Z,98761.89
2023-04-12T06:58:19.688Z,98765.55
2023-04-12T06:59:25.275Z,98767.40
2023-04-12T07:00:29.219Z,98762.15
2023-04-12T07:01:32.418Z,98764.83
2023-04-12T07:02:35.369Z,98770.19
2023-04-12T07:03:38.597Z,98769.36
2023-04-12T07:04:42.113Z,98764.97
2023-04-12T07:05:44.826Z,98770.48
2023-04-12T07:06:47.756Z,98768.66
2023-04-12T07:07:50.927Z,98758.92
2023-04-12T07:08:55.015Z,98759.75
2023-04-12T07:09:59.834Z,98758.08
2023-04-12T07:11:14.594Z,98764.42
2023-04-12T07:12:08.739Z,98761.74
2023-04-12T07:13:11.558Z,98762.72
2023-04-12T07:14:15.183Z,98764.56
2023-04-12T07:15:18.214Z,98765.55
2023-04-12T07:16:23.129Z,98764.56
2023-04-12T07:17:26.801Z,98756.67
2023-04-12T07:18:30.027Z,98755.66
2023-04-12T07:19:33.066Z,98761.02
2023-04-12T07:20:37.644Z,98762.03
2023-04-12T07:21:41.435Z,98762.03
2023-04-12T07:22:45.036Z,98756.67
2023-04-12T07:23:51.009Z,98755.80
2023-04-12T07:24:55.079Z,98756.67
2023-04-12T07:26:01.516Z,98755.66
2023-04-12T07:27:07.091Z,98756.67
2023-04-12T07:28:09.967Z,98753.12
2023-04-12T07:30:27.249Z,98750.45
2023-04-12T07:31:33.735Z,98759.46
2023-04-12T07:32:38.319Z,98749.31
2023-04-12T07:33:43.101Z,98762.14
2023-04-12T07:34:52.682Z,98758.63
2023-04-12T07:35:55.969Z,98757.64
2023-04-12T07:37:00.454Z,98751.42
2023-04-12T07:38:07.623Z,98766.66
2023-04-12T07:39:14.946Z,98747.91
2023-04-12T07:40:18.545Z,98757.78
2023-04-12T07:41:23.170Z,98756.92
2023-04-12T07:42:26.693Z,98757.78
2023-04-12T07:43:30.267Z,98758.77
2023-04-12T07:44:36.342Z,98754.38
2023-04-12T07:45:39.344Z,98752.57
2023-04-12T07:46:42.363Z,98756.23
2023-04-12T07:47:45.682Z,98750.87
2023-04-12T07:48:51.162Z,98754.38
2023-04-12T07:49:54.759Z,98751.70
2023-04-12T07:50:57.961Z,98751.84
2023-04-12T07:52:00.704Z,98758.91
2023-04-12T07:53:23.036Z,98750.87
2023-04-12T07:54:28.637Z,98753.55
2023-04-12T07:55:32.509Z,98750.87
2023-04-12T07:56:35.647Z,98747.32
2023-04-12T07:57:38.534Z,98745.65
2023-04-12T07:58:41.473Z,98750.14
2023-04-12T07:59:46.161Z,98743.95
2023-04-12T08:00:49.781Z,98754.67
2023-04-12T08:01:54.278Z,98745.77
2023-04-12T08:02:57.242Z,98746.73
2023-04-12T08:04:01.150Z,98752.94
2023-04-12T08:05:10.153Z,98752.09
2023-04-12T08:06:14.724Z,98746.73
2023-04-12T08:07:18.669Z,98748.58
2023-04-12T08:08:23.323Z,98749.56
2023-04-12T08:09:26.910Z,98757.60
2023-04-12T08:12:11.664Z,98750.40
2023-04-12T08:13:14.597Z,98741.52
2023-04-12T08:14:19.290Z,98742.50
2023-04-12T08:15:22.128Z,98748.69
2023-04-12T08:16:26.387Z,98742.50
2023-04-12T08:17:29.146Z,98740.80
2023-04-12T08:18:33.313Z,98741.66
2023-04-12T08:19:36.356Z,98751.52
2023-04-12T08:20:43.662Z,98745.32
2023-04-12T08:21:46.374Z,98748.00
2023-04-12T08:22:49.644Z,98742.64
2023-04-12T08:23:54.745Z,98744.48
2023-04-12T08:24:58.272Z,98736.55
2023-04-12T08:26:05.091Z,98741.80
2023-04-12T08:27:08.374Z,98740.94
2023-04-12T08:28:14.452Z,98748.00
2023-04-12T08:29:18.628Z,98743.62
2023-04-12T08:30:23.986Z,98740.94
2023-04-12T08:32:43.176Z,98732.10
2023-04-12T08:33:45.951Z,98732.89
2023-04-12T08:34:49.499Z,98741.91
2023-04-12T08:35:53.496Z,98741.91
2023-04-12T08:36:59.327Z,98738.40
2023-04-12T08:38:03.909Z,98736.55
2023-04-12T08:39:08.398Z,98742.78
2023-04-12T08:40:14.385Z,98741.08
2023-04-12T08:41:17.743Z,98734.88
2023-04-12T08:42:21.886Z,98734.88
2023-04-12T08:43:27.767Z,98730.36
2023-04-12T08:44:36.555Z,98731.20
2023-04-12T08:45:39.502Z,98735.72
2023-04-12T08:46:42.700Z,98730.36
2023-04-12T08:47:48.318Z,98731.20
2023-04-12T08:48:56.645Z,98733.19
2023-04-12T08:50:02.606Z,98721.48
2023-04-12T08:51:06.312Z,98731.20
2023-04-12T08:52:10.510Z,98725.98
2023-04-12T08:53:13.367Z,98728.66
2023-04-12T08:54:16.172Z,98728.66
2023-04-12T08:55:19.634Z,98722.46
2023-04-12T08:56:23.450Z,98725.14
2023-04-12T08:57:27.384Z,98725.14
2023-04-12T08:58:31.058Z,98718.08
2023-04-12T09:00:51.317Z,98715.41
2023-04-12T09:01:55.020Z,98710.04
2023-04-12T09:02:58.976Z,98716.38
2023-04-12T09:04:08.018Z,98718.22
2023-04-12T09:05:13.356Z,98712.86
2023-04-12T09:06:17.387Z,98713.84
2023-04-12T09:07:33.858Z,98716.38
2023-04-12T09:08:38.741Z,98714.70
2023-04-12T09:09:47.911Z,98711.88
2023-04-12T09:10:51.556Z,98712.03
2023-04-12T09:11:59.353Z,98718.22
2023-04-12T09:13:03.469Z,98712.86
2023-04-12T09:14:23.869Z,98709.34
2023-04-12T09:15:27.062Z,98703.98
2023-04-12T09:16:34.871Z,98704.97
2023-04-12T09:17:38.813Z,98709.34
2023-04-12T09:18:50.842Z,98705.80
2023-04-12T09:19:58.866Z,98707.64
2023-04-12T09:21:09.181Z,98696.23
2023-04-12T09:22:12.159Z,98701.45
2023-04-12T09:23:24.068Z,98699.89
2023-04-12T09:24:27.654Z,98700.73
2023-04-12T09:27:06.984Z,98700.73
2023-04-12T09:28:25.651Z,98702.57
2023-04-12T09:29:28.384Z,98702.57
2023-04-12T09:30:34.872Z,98700.87
2023-04-12T09:31:38.510Z,98699.03
2023-04-12T09:32:41.646Z,98697.36
2023-04-12T09:33:45.582Z,98696.48
2023-04-12T09:34:57.523Z,98690.98
2023-04-12T09:36:02.470Z,98694.67
2023-04-12T09:37:17.370Z,98702.57
2023-04-12T09:38:20.746Z,98697.21
2023-04-12T09:40:47.762Z,98690.88
2023-04-12T09:41:54.273Z,98690.01
2023-04-12T09:42:59.090Z,98696.23
2023-04-12T09:44:02.156Z,98701.59
2023-04-12T09:46:37.772Z,98689.03
2023-04-12T09:47:41.264Z,98690.73
2023-04-12T09:48:52.375Z,98696.09
2023-04-12T09:49:56.185Z,98691.56
2023-04-12T09:51:01.588Z,98694.25
2023-04-12T09:52:05.995Z,98702.14
2023-04-12T09:53:13.567Z,98682.55
2023-04-12T09:54:16.754Z,98690.59
2023-04-12T09:55:24.494Z,98694.94
2023-04-12T09:56:30.031Z,98693.27
2023-04-12T09:57:34.303Z,98690.45
2023-04-12T09:58:40.575Z,98689.58
2023-04-12T09:59:44.661Z,98688.74
2023-04-12T10:00:47.608Z,98694.11
2023-04-12T10:01:50.733Z,98694.11
2023-04-12T10:02:55.260Z,98690.45
2023-04-12T10:03:59.590Z,98689.58
2023-04-12T10:05:03.859Z,98694.83
2023-04-12T10:06:10.009Z,98692.98
2023-04-12T10:07:15.189Z,98692.15
2023-04-12T10:08:18.554Z,98684.11
2023-04-12T10:09:21.477Z,98682.41
2023-04-12T10:10:24.729Z,98684.11
2023-04-12T10:11:27.934Z,98682.41
2023-04-12T10:12:32.672Z,98686.78
2023-04-12T10:13:37.851Z,98692.98
2023-04-12T10:14:40.422Z,98684.94
2023-04-12T10:15:46.360Z,98685.92
2023-04-12T10:16:49.832Z,98684.11
2023-04-12T10:17:53.509Z,98686.78
2023-04-12T10:20:10.713Z,98684.83
2023-04-12T10:21:13.601Z,98685.78
2023-04-12T10:22:17.136Z,98691.14
2023-04-12T10:23:21.155Z,98694.69
2023-04-12T10:24:26.219Z,98689.33
2023-04-12T10:25:30.334Z,98686.50
2023-04-12T10:26:33.698Z,98689.18
2023-04-12T10:27:37.992Z,98687.34
2023-04-12T10:28:41.028Z,98684.66
2023-04-12T10:29:44.269Z,98686.36
2023-04-12T10:30:49.874Z,98684.66
2023-04-12T10:31:55.198Z,98690.73
2023-04-12T10:33:09.257Z,98681.83
2023-04-12T10:34:12.257Z,98680.85
2023-04-12T10:35:16.322Z,98681.69
2023-04-12T10:36:20.410Z,98684.37
2023-04-12T10:39:10.644Z,98672.70
2023-04-12T10:40:19.135Z,98679.88
2023-04-12T10:42:36.839Z,98678.92
2023-04-12T10:43:41.457Z,98680.70
2023-04-12T10:44:48.110Z,98677.19
2023-04-12T10:45:50.993Z,98680.70
2023-04-12T10:46:54.560Z,98677.05
2023-04-12T10:48:00.661Z,98682.41
2023-04-12T10:49:15.451Z,98677.88
2023-04-12T10:50:25.142Z,98676.07
2023-04-12T10:51:29.136Z,98676.94
2023-04-12T10:52:36.697Z,98677.77
2023-04-12T10:53:39.592Z,98680.45
2023-04-12T10:54:44.313Z,98683.13
2023-04-12T10:55:48.266Z,98677.77
2023-04-12T10:56:55.038Z,98677.77
2023-04-12T10:58:01.287Z,98676.94
2023-04-12T10:59:08.369Z,98677.77
2023-04-12T11:00:20.115Z,98677.77
2023-04-12T11:01:23.403Z,98680.45
2023-04-12T11:02:26.961Z,98675.09
2023-04-12T11:03:32.106Z,98674.11
2023-04-12T11:04:35.831Z,98684.00
2023-04-12T11:06:19.646Z,98675.95
2023-04-12T11:07:38.504Z,98678.64
2023-04-12T11:08:43.625Z,98675.95
2023-04-12T11:11:06.197Z,98679.47
2023-04-12T11:12:18.762Z,98671.58
2023-04-12T11:13:23.235Z,98678.75
2023-04-12T11:14:37.633Z,98678.75
2023-04-12T11:15:41.652Z,98675.20
2023-04-12T11:17:10.281Z,98671.69
2023-04-12T11:18:13.640Z,98676.94
2023-04-12T11:19:16.848Z,98672.52
2023-04-12T11:20:20.272Z,98668.03
2023-04-12T11:21:23.712Z,98673.39
2023-04-12T11:22:28.484Z,98663.64
2023-04-12T11:23:33.453Z,98673.39
2023-04-12T11:24:46.776Z,98677.88
2023-04-12T11:25:55.397Z,98673.39
2023-04-12T11:27:00.592Z,98674.26
2023-04-12T11:28:11.098Z,98673.39
2023-04-12T11:29:16.629Z,98671.58
2023-04-12T11:30:20.542Z,98667.05
2023-04-12T11:31:24.091Z,98671.58
2023-04-12T11:32:42.507Z,98665.23
2023-04-12T11:33:45.102Z,98660.71
2023-04-12T11:34:48.086Z,98668.75
2023-04-12T11:35:51.866Z,98664.22
2023-04-12T11:36:54.911Z,98666.06
2023-04-12T11:37:58.916Z,98665.09
2023-04-12T11:39:03.074Z,98665.09
2023-04-12T11:40:08.948Z,98663.39
2023-04-12T11:41:12.667Z,98657.05
2023-04-12T11:43:33.043Z,98668.45
2023-04-12T11:44:54.523Z,98671.28
2023-04-12T11:45:42.092Z,98663.25
2023-04-12T11:46:45.961Z,98661.43
2023-04-12T11:47:48.972Z,98662.27
2023-04-12T11:48:52.811Z,98664.80
2023-04-12T11:49:57.043Z,98662.13
2023-04-12T11:52:33.427Z,98664.65
2023-04-12T11:53:36.267Z,98660.27
2023-04-12T11:54:42.540Z,98657.59
2023-04-12T11:55:49.535Z,98657.59
2023-04-12T11:56:56.802Z,98663.82
2023-04-12T11:57:59.540Z,98663.82
2023-04-12T12:00:16.713Z,98654.79
2023-04-12T12:01:22.241Z,98661.97
2023-04-12T12:02:30.400Z,98657.59
2023-04-12T12:03:32.488Z,98652.23
2023-04-12T12:04:37.349Z,98653.09
2023-04-12T12:05:41.887Z,98653.94
2023-04-12T12:06:46.509Z,98652.95
2023-04-12T12:07:54.845Z,98652.95
2023-04-12T12:08:58.118Z,98646.76
2023-04-12T12:10:01.196Z,98653.79
2023-04-12T12:11:08.340Z,98651.11
2023-04-12T12:12:11.807Z,98653.79
2023-04-12T12:13:15.232Z,98640.38
2023-04-12T12:14:22.323Z,98651.11
2023-04-12T12:15:31.425Z,98645.75
2023-04-12T12:16:36.134Z,98647.59
2023-04-12T12:17:40.259Z,98650.27
2023-04-12T12:18:45.079Z,98642.23
2023-04-12T12:19:48.466Z,98648.42
2023-04-12T12:20:52.810Z,98638.72
2023-04-12T12:22:17.482Z,98638.72
2023-04-12T12:23:32.110Z,98638.72
2023-04-12T12:24:39.217Z,98635.02
2023-04-12T12:25:47.073Z,98638.57
2023-04-12T12:26:51.327Z,98629.66
2023-04-12T12:27:58.953Z,98631.50
2023-04-12T12:29:03.165Z,98634.19
2023-04-12T12:31:26.706Z,98626.97
2023-04-12T12:35:11.350Z,98625.16
2023-04-12T12:36:22.430Z,98634.19
2023-04-12T12:37:29.266Z,98625.31
2023-04-12T12:38:37.690Z,98626.14
2023-04-12T12:40:04.230Z,98624.30
2023-04-12T12:42:31.474Z,98615.27
2023-04-12T12:43:35.426Z,98624.16
2023-04-12T12:44:38.445Z,98623.31
2023-04-12T12:45:41.915Z,98613.42
2023-04-12T12:46:55.114Z,98609.08
2023-04-12T12:47:55.661Z,98609.91
2023-04-12T12:48:59.596Z,98608.22
2023-04-12T12:50:04.969Z,98611.77
2023-04-12T12:51:09.733Z,98612.59
2023-04-12T12:52:14.272Z,98609.08
2023-04-12T12:53:24.539Z,98616.11
2023-04-12T12:54:40.239Z,98606.41
2023-04-12T12:55:34.656Z,98604.55
2023-04-12T12:56:37.782Z,98604.55
2023-04-12T12:57:55.158Z,98607.23
2023-04-12T12:58:53.074Z,98603.72
2023-04-12T12:59:57.165Z,98603.57
2023-04-12T13:01:03.770Z,98600.03
2023-04-12T13:02:07.238Z,98597.34
2023-04-12T13:03:12.540Z,98595.53
2023-04-12T13:04:15.836Z,98600.89
2023-04-12T13:05:20.663Z,98599.05
2023-04-12T13:06:26.743Z,98599.91
2023-04-12T13:07:32.412Z,98601.58
2023-04-12T13:08:36.724Z,98594.41
2023-04-12T13:09:39.895Z,98595.23
2023-04-12T13:10:43.592Z,98605.13
2023-04-12T13:11:47.956Z,98604.26
2023-04-12T13:12:51.322Z,98597.91
2023-04-12T13:13:54.972Z,98598.06
2023-04-12T13:15:17.351Z,98597.08
2023-04-12T13:16:06.794Z,98596.22
2023-04-12T13:17:11.228Z,98590.86
2023-04-12T13:18:18.022Z,98598.06
2023-04-12T13:19:20.995Z,98593.53
2023-04-12T13:20:25.491Z,98594.41
2023-04-12T13:21:29.022Z,98592.70
2023-04-12T13:23:44.399Z,98592.68
2023-04-12T13:24:47.599Z,98598.06
2023-04-12T13:25:50.997Z,98593.68
2023-04-12T13:26:54.132Z,98593.68
2023-04-12T13:27:56.962Z,98596.52
2023-04-12T13:29:00.330Z,98594.81
2023-04-12T13:30:05.602Z,98593.00
2023-04-12T13:31:10.920Z,98597.49
2023-04-12T13:32:13.792Z,98599.34
2023-04-12T13:33:21.026Z,98593.98
2023-04-12T13:34:22.507Z,98600.31
2023-04-12T13:35:30.510Z,98599.48
2023-04-12T13:36:34.045Z,98595.11